To NAV CANADA Home Page Login to a new session Search on AWWS site Disclaimer Vers la page française équivalente Tips FAQ What's new on the site To the Forecasts and Observations / NOTAM section To "File a Flight Plan" website Publications and other links Update of the User's profile FIC Telephone Numbers My Weather Data Folder Route Weather Data Regional Weather Data Local Weather Data To the Forecasts and Observations / NOTAM section
Request Generated 12/01/2020 at 09:28:42 UTC . Weather information available at that time is displayed.

METAR/TAF

If you find any discrepancies between the coded METAR/TAF and the plain language METAR/TAF please use the coded METAR/TAF. LWIS bulletins are not decoded in plain language.

TORONTO/LESTER B. PEARSON INTL/ON    

SPECI CYYZ 010925Z 35017G25KT 2SM R33L/5500VP6000FT/D -SN VV009 M02/M03 A2947 R SN8 SLP986=
SPECI
LOCATION
CYYZ - TORONTO/LESTER B. PEARSON INTL/ON
DATE - TIME
01 DECEMBER 2020 - 0925 UTC
WIND
350 TRUE @ 17  KNOTS
GUSTS
25 KNOTS
VISIBILITY
2 STAT.  MILES
RUNWAY VISUAL RANGE
RUNWAY 33 L
MIN RANGE 5500  FT
MAX RANGE 6000 +  FT
TENDENCY DOWNWARD
WEATHER
LIGHT SNOW
CLOUDINESS
VERTICAL VISIBILITY 900  FT
TEMP / DEWPOINT
-2 C / -3 C
ALTIMETER
29.47 IN HG
RECENT WEATHER
WIND SHEAR

METAR CYYZ 010900Z 34019G25KT 2 1/2SM R33L/5000VP6000FT/U -SN VV010 M02/M03 A29 RMK SN8 SLP987=
METAR
LOCATION
CYYZ - TORONTO/LESTER B. PEARSON INTL/ON
DATE - TIME
01 DECEMBER 2020 - 0900 UTC
WIND
340 TRUE @ 19  KNOTS
GUSTS
25 KNOTS
VISIBILITY
2 1/2 STAT.  MILES
RUNWAY VISUAL RANGE
RUNWAY 33 L
MIN RANGE 5000  FT
MAX RANGE 6000 +  FT
TENDENCY UPWARD
WEATHER
LIGHT SNOW
CLOUDINESS
VERTICAL VISIBILITY 1000  FT
TEMP / DEWPOINT
-2 C / -3 C
ALTIMETER
29.40 IN HG
RECENT WEATHER
WIND SHEAR

METAR CYYZ 010800Z 34016G26KT 2 1/2SM -SN VV010 M01/M03 A2947 RMK SN8 SLP988=
METAR
LOCATION
CYYZ - TORONTO/LESTER B. PEARSON INTL/ON
DATE - TIME
01 DECEMBER 2020 - 0800 UTC
WIND
340 TRUE @ 16  KNOTS
GUSTS
26 KNOTS
VISIBILITY
2 1/2 STAT.  MILES
RUNWAY VISUAL RANGE
WEATHER
LIGHT SNOW
CLOUDINESS
VERTICAL VISIBILITY 1000  FT
TEMP / DEWPOINT
-1 C / -3 C
ALTIMETER
29.47 IN HG
RECENT WEATHER
WIND SHEAR

METAR CYYZ 010700Z 34019G25KT 2 1/2SM -SN VV012 M01/M02 A2947 RMK SN8 SLP987=
METAR
LOCATION
CYYZ - TORONTO/LESTER B. PEARSON INTL/ON
DATE - TIME
01 DECEMBER 2020 - 0700 UTC
WIND
340 TRUE @ 19  KNOTS
GUSTS
25 KNOTS
VISIBILITY
2 1/2 STAT.  MILES
RUNWAY VISUAL RANGE
WEATHER
LIGHT SNOW
CLOUDINESS
VERTICAL VISIBILITY 1200  FT
TEMP / DEWPOINT
-1 C / -2 C
ALTIMETER
29.47 IN HG
RECENT WEATHER
WIND SHEAR

TAF CYYZ 010839Z 0109/0212 35015G25KT 11/2SM -SN OVC012 TEMPO 0109/0118 2SM -SN OVC025 FM011800 33015KT 5SM -SN OVC015 FM020000 31012G22KT 2SM -SN OVC012 FM020300 31012G22KT 11/2SM -SN OVC010 FM021000 28012G22KT 5SM -SN OVC025 RMK NXT FCST BY 011200Z=
TAF
LOCATION

CYYZ - TORONTO/LESTER B. PEARSON INTL/ON
VALIDITY [UTC]
01 DEC - 0839 to
02 DEC - 1200
 
TIMES
[UTC]
WIND
[DEGREES TRUE]
VISIBILITY
[STAT. MILES]
WEATHER
CLOUDINESS
[FEET AGL]
 
01 DEC - 0900 to
01 DEC - 1800
350 @ 15 KNOTS
GUSTS 25 KNOTS
1 1/2
LIGHT SNOW
1200 OVERCAST
TEMPORARY CHANGES
01 DEC - 0900 to
01 DEC - 1800
 
2
LIGHT SNOW
2500 OVERCAST
 
01 DEC - 1800 to
02 DEC - 0000
330 @ 15 KNOTS
5
LIGHT SNOW
1500 OVERCAST
 
02 DEC - 0000 to
02 DEC - 0300
310 @ 12 KNOTS
GUSTS 22 KNOTS
2
LIGHT SNOW
1200 OVERCAST
 
02 DEC - 0300 to
02 DEC - 1000
310 @ 12 KNOTS
GUSTS 22 KNOTS
1 1/2
LIGHT SNOW
1000 OVERCAST
 
02 DEC - 1000 to
02 DEC - 1200
280 @ 12 KNOTS
GUSTS 22 KNOTS
5
LIGHT SNOW
2500 OVERCAST
REMARKS
THE NEXT FORECAST WILL BE ISSUED BY 1200 UTC ON DAY 01


Your time UTC time
Weather data provided by Environment Canada and NAV CANADA